Skip Navigation Links Skip Navigation Links

Current Weather

Franklin County, Louisburg, N.C.

For information only: do not use for flight planning or navigation.
Latest weather
Observation time Friday, December 4, 2020 2:35 AM EST
Local time Friday, December 4, 2020 3:01 AM EST
Flight conditions Visual Meteorological Conditions
Winds
Wind direction South (190°)
Wind speed 6 mph
Visibility 10 mi.
Sky condition
Ceiling unlimited
Sky clear
Temperature 41°F
Dewpoint 32°F
Altimeter 30.26 in.Hg
Derived measurements
Relative humidity 70%
Wind chill 37°F
Density altitude -1135 ft.
Remarks
Fully automated report.
Automated weather observing station with precipitation discriminator.
METAR KLHZ 040735Z AUTO 19005KT 10SM CLR 05/00 A3026 RMK AO2

Settings

Location code

InnerDrive.Weather 4.0.6770.0 Release CLR 4.0.30319.42000
Copyright ©2018 Inner Drive Technology. All rights reserved. Portions Copyright ©1986-2018 David Braverman.

Find weather

Site navigation


Skip Navigation Links

Place info

Page info

PayPal - The safer, easier way to pay online!

Return home.

Copyright ©2020 Inner Drive Technology. Purveyors of fine, hand-crafted computer software. Page printed 2020-12-04T08:01:30 UTC.